Hauptseite
METAR-TAF:

METAR-TAF

Flughäfen :

George Best Belfast City Airport

Belfast City, Nordirland

Breite: 54-36N, Länge: 005-53W, Höhe: 5 m

Beobachtung

Neuester Wetterbericht von vor 22 Minuten, um 11:50 UTC
Wind 15 kt aus Nord/Nordost
Temperatur 7°C
Luftfeuchtigkeit 61%
Luftdruck 1008 hPa
Sichtweite 10 km oder mehr

METAR: EGAC 141150Z AUTO 02015KT 9999 NCD 07/00 Q1008

Zeit: 12:12 (12:12 UTC)

Prognose

Neuester Wetterbericht von vor 1 Stunde und 8 Minuten, um 11:04 UTC
Gültige Prognose vom 14 um 12 UTC bis 14 um 21 UTC
Wind 15 kt aus Nord/Nordost
Sichtweite 10 km oder mehr
Aufgelockert bewölkt in der Höhe von 3000 ft
Wahrscheinlichkeit 30% :
Zeitweise
vom 14 um 12 UTC bis 14 um 21 UTC
Wind 18 kt aus Nord/Nordost, Böen bis zu 28 kt

TAF: EGAC 141104Z 1412/1421 02015KT 9999 SCT030 PROB30 TEMPO 1412/1421 02018G28KT

Wetterbeobachtungen und Prognosen von mehr als 4000 Flughäfen (METAR und TAF Bericht).

Die verfügbaren Stationen werden durch gelbe und rote Markierungen auf der Karte dargestellt.

Führen Sie die Maus auf sie, um den Namen der Station zu sehen.

Darauf klicken, um die Beobachtung von Wetterbeobachtungen und Prognosen zu sehen.

Um die Karte zu ändern : klicken Sie auf den grünen Tasten mit einem schwarzen Kreuz Zum Vergrößern, auf den grünen Button mit einem Gedankenstrich zu verkleinern, oder auf die grünen Pfeile für benachbarte Karten.


METAR-TAF: